sensor_id;sensor_type;location;lat;lon;timestamp;P1;durP1;ratioP1;P2;durP2;ratioP2
21334;SDS011;10826;52.536;13.432;2023-04-15T00:00:59;59.00;;;26.63;;
21334;SDS011;10826;52.536;13.432;2023-04-15T00:03:45;61.60;;;27.13;;
21334;SDS011;10826;52.536;13.432;2023-04-15T00:06:31;68.93;;;28.70;;
21334;SDS011;10826;52.536;13.432;2023-04-15T00:09:18;60.60;;;27.20;;
21334;SDS011;10826;52.536;13.432;2023-04-15T00:12:05;65.33;;;29.03;;
21334;SDS011;10826;52.536;13.432;2023-04-15T00:14:52;70.53;;;28.97;;
21334;SDS011;10826;52.536;13.432;2023-04-15T00:17:38;65.30;;;28.87;;
21334;SDS011;10826;52.536;13.432;2023-04-15T00:20:25;66.53;;;30.23;;
21334;SDS011;10826;52.536;13.432;2023-04-15T00:23:11;72.90;;;30.37;;
21334;SDS011;10826;52.536;13.432;2023-04-15T00:25:57;67.57;;;29.13;;
21334;SDS011;10826;52.536;13.432;2023-04-15T00:28:49;64.30;;;28.93;;
21334;SDS011;10826;52.536;13.432;2023-04-15T00:31:34;69.33;;;30.17;;
21334;SDS011;10826;52.536;13.432;2023-04-15T00:34:20;68.30;;;28.87;;
21334;SDS011;10826;52.536;13.432;2023-04-15T00:37:08;68.10;;;29.33;;
21334;SDS011;10826;52.536;13.432;2023-04-15T00:39:54;76.87;;;29.83;;
21334;SDS011;10826;52.536;13.432;2023-04-15T00:42:45;76.33;;;30.17;;
21334;SDS011;10826;52.536;13.432;2023-04-15T00:45:31;70.67;;;31.60;;
21334;SDS011;10826;52.536;13.432;2023-04-15T00:48:17;70.77;;;30.00;;
21334;SDS011;10826;52.536;13.432;2023-04-15T00:51:04;74.17;;;30.97;;
21334;SDS011;10826;52.536;13.432;2023-04-15T00:53:51;81.83;;;31.23;;
21334;SDS011;10826;52.536;13.432;2023-04-15T00:56:39;81.57;;;31.10;;
21334;SDS011;10826;52.536;13.432;2023-04-15T00:59:26;73.33;;;30.20;;
21334;SDS011;10826;52.536;13.432;2023-04-15T01:02:15;77.30;;;30.50;;
21334;SDS011;10826;52.536;13.432;2023-04-15T01:05:02;76.03;;;31.13;;
21334;SDS011;10826;52.536;13.432;2023-04-15T01:07:49;78.80;;;31.50;;
21334;SDS011;10826;52.536;13.432;2023-04-15T01:10:35;75.10;;;30.40;;
21334;SDS011;10826;52.536;13.432;2023-04-15T01:13:22;82.20;;;31.57;;
21334;SDS011;10826;52.536;13.432;2023-04-15T01:16:09;75.60;;;30.07;;
21334;SDS011;10826;52.536;13.432;2023-04-15T01:18:56;79.03;;;32.00;;
21334;SDS011;10826;52.536;13.432;2023-04-15T01:21:42;80.97;;;32.37;;
21334;SDS011;10826;52.536;13.432;2023-04-15T01:24:29;78.47;;;31.93;;
21334;SDS011;10826;52.536;13.432;2023-04-15T01:27:26;77.17;;;31.50;;
21334;SDS011;10826;52.536;13.432;2023-04-15T01:30:12;83.27;;;30.70;;
21334;SDS011;10826;52.536;13.432;2023-04-15T01:32:58;84.60;;;32.83;;
21334;SDS011;10826;52.536;13.432;2023-04-15T01:35:44;80.27;;;30.73;;
21334;SDS011;10826;52.536;13.432;2023-04-15T01:38:30;77.97;;;30.23;;
21334;SDS011;10826;52.536;13.432;2023-04-15T01:41:20;77.13;;;31.10;;
21334;SDS011;10826;52.536;13.432;2023-04-15T01:44:11;84.70;;;31.93;;
21334;SDS011;10826;52.536;13.432;2023-04-15T01:46:57;77.63;;;32.70;;
21334;SDS011;10826;52.536;13.432;2023-04-15T01:49:43;77.73;;;30.90;;
21334;SDS011;10826;52.536;13.432;2023-04-15T01:52:29;85.83;;;30.97;;
21334;SDS011;10826;52.536;13.432;2023-04-15T01:55:15;78.90;;;29.47;;
21334;SDS011;10826;52.536;13.432;2023-04-15T01:58:02;74.90;;;31.40;;
21334;SDS011;10826;52.536;13.432;2023-04-15T02:00:48;84.33;;;33.17;;
21334;SDS011;10826;52.536;13.432;2023-04-15T02:03:34;78.80;;;30.63;;
21334;SDS011;10826;52.536;13.432;2023-04-15T02:06:21;72.33;;;30.77;;
21334;SDS011;10826;52.536;13.432;2023-04-15T02:09:07;80.97;;;29.73;;
21334;SDS011;10826;52.536;13.432;2023-04-15T02:11:54;78.40;;;30.33;;
21334;SDS011;10826;52.536;13.432;2023-04-15T02:14:40;75.30;;;29.00;;
21334;SDS011;10826;52.536;13.432;2023-04-15T02:17:26;73.40;;;29.17;;
21334;SDS011;10826;52.536;13.432;2023-04-15T02:20:12;75.13;;;29.77;;
21334;SDS011;10826;52.536;13.432;2023-04-15T02:22:59;68.13;;;30.20;;
21334;SDS011;10826;52.536;13.432;2023-04-15T02:25:46;65.80;;;28.47;;
21334;SDS011;10826;52.536;13.432;2023-04-15T02:28:32;74.03;;;30.77;;
21334;SDS011;10826;52.536;13.432;2023-04-15T02:31:17;74.53;;;30.17;;
21334;SDS011;10826;52.536;13.432;2023-04-15T02:34:03;77.37;;;29.03;;
21334;SDS011;10826;52.536;13.432;2023-04-15T02:36:50;70.80;;;29.73;;
21334;SDS011;10826;52.536;13.432;2023-04-15T02:39:39;73.13;;;29.87;;
21334;SDS011;10826;52.536;13.432;2023-04-15T02:42:25;69.87;;;29.63;;
21334;SDS011;10826;52.536;13.432;2023-04-15T02:45:13;68.13;;;28.90;;
21334;SDS011;10826;52.536;13.432;2023-04-15T02:47:58;70.80;;;29.77;;
21334;SDS011;10826;52.536;13.432;2023-04-15T02:50:50;75.10;;;29.67;;
21334;SDS011;10826;52.536;13.432;2023-04-15T02:53:36;70.90;;;29.37;;
21334;SDS011;10826;52.536;13.432;2023-04-15T02:56:22;68.13;;;29.03;;
21334;SDS011;10826;52.536;13.432;2023-04-15T02:59:07;73.40;;;31.40;;
21334;SDS011;10826;52.536;13.432;2023-04-15T03:01:58;74.63;;;29.43;;
21334;SDS011;10826;52.536;13.432;2023-04-15T03:04:48;73.57;;;28.70;;
21334;SDS011;10826;52.536;13.432;2023-04-15T03:07:33;62.73;;;28.40;;
21334;SDS011;10826;52.536;13.432;2023-04-15T03:10:21;62.97;;;28.17;;
21334;SDS011;10826;52.536;13.432;2023-04-15T03:13:07;69.93;;;29.87;;
21334;SDS011;10826;52.536;13.432;2023-04-15T03:15:53;67.17;;;28.97;;
21334;SDS011;10826;52.536;13.432;2023-04-15T03:18:39;70.43;;;29.50;;
21334;SDS011;10826;52.536;13.432;2023-04-15T03:21:25;63.07;;;28.17;;
21334;SDS011;10826;52.536;13.432;2023-04-15T03:24:11;60.60;;;27.67;;
21334;SDS011;10826;52.536;13.432;2023-04-15T03:26:57;61.37;;;27.13;;
21334;SDS011;10826;52.536;13.432;2023-04-15T03:29:43;65.93;;;28.23;;
21334;SDS011;10826;52.536;13.432;2023-04-15T03:32:29;62.10;;;27.60;;
21334;SDS011;10826;52.536;13.432;2023-04-15T03:35:15;65.53;;;28.10;;
21334;SDS011;10826;52.536;13.432;2023-04-15T03:38:01;60.03;;;27.20;;
21334;SDS011;10826;52.536;13.432;2023-04-15T03:40:47;66.60;;;27.97;;
21334;SDS011;10826;52.536;13.432;2023-04-15T03:43:33;63.67;;;27.10;;
21334;SDS011;10826;52.536;13.432;2023-04-15T03:46:20;61.30;;;27.67;;
21334;SDS011;10826;52.536;13.432;2023-04-15T03:49:20;58.40;;;26.03;;
21334;SDS011;10826;52.536;13.432;2023-04-15T03:52:07;60.90;;;27.43;;
21334;SDS011;10826;52.536;13.432;2023-04-15T03:54:53;62.53;;;26.43;;
21334;SDS011;10826;52.536;13.432;2023-04-15T03:57:41;54.27;;;25.40;;
21334;SDS011;10826;52.536;13.432;2023-04-15T04:00:27;58.60;;;27.43;;
21334;SDS011;10826;52.536;13.432;2023-04-15T04:03:14;58.93;;;25.67;;
21334;SDS011;10826;52.536;13.432;2023-04-15T04:06:00;56.47;;;25.70;;
21334;SDS011;10826;52.536;13.432;2023-04-15T04:08:46;60.77;;;27.17;;
21334;SDS011;10826;52.536;13.432;2023-04-15T04:11:32;56.13;;;26.57;;
21334;SDS011;10826;52.536;13.432;2023-04-15T04:14:18;55.77;;;24.67;;
21334;SDS011;10826;52.536;13.432;2023-04-15T04:17:05;57.60;;;27.00;;
21334;SDS011;10826;52.536;13.432;2023-04-15T04:19:51;58.40;;;25.70;;
21334;SDS011;10826;52.536;13.432;2023-04-15T04:22:37;57.93;;;26.30;;
21334;SDS011;10826;52.536;13.432;2023-04-15T04:25:25;52.60;;;25.87;;
21334;SDS011;10826;52.536;13.432;2023-04-15T04:28:11;50.73;;;25.33;;
21334;SDS011;10826;52.536;13.432;2023-04-15T04:30:57;54.27;;;25.23;;
21334;SDS011;10826;52.536;13.432;2023-04-15T04:33:43;53.67;;;25.67;;
21334;SDS011;10826;52.536;13.432;2023-04-15T04:36:29;56.37;;;26.67;;
21334;SDS011;10826;52.536;13.432;2023-04-15T04:39:22;53.47;;;25.73;;
21334;SDS011;10826;52.536;13.432;2023-04-15T04:42:08;50.07;;;24.30;;
21334;SDS011;10826;52.536;13.432;2023-04-15T04:44:53;54.13;;;25.70;;
21334;SDS011;10826;52.536;13.432;2023-04-15T04:47:39;50.17;;;25.73;;
21334;SDS011;10826;52.536;13.432;2023-04-15T04:50:25;57.17;;;24.83;;
21334;SDS011;10826;52.536;13.432;2023-04-15T04:53:11;47.97;;;24.17;;
21334;SDS011;10826;52.536;13.432;2023-04-15T04:55:57;53.23;;;25.37;;
21334;SDS011;10826;52.536;13.432;2023-04-15T04:58:44;51.70;;;24.50;;
21334;SDS011;10826;52.536;13.432;2023-04-15T05:01:31;47.13;;;24.43;;
21334;SDS011;10826;52.536;13.432;2023-04-15T05:04:17;56.37;;;24.00;;
21334;SDS011;10826;52.536;13.432;2023-04-15T05:07:02;46.13;;;23.40;;
21334;SDS011;10826;52.536;13.432;2023-04-15T05:09:54;42.43;;;22.63;;
21334;SDS011;10826;52.536;13.432;2023-04-15T05:12:40;40.17;;;22.33;;
21334;SDS011;10826;52.536;13.432;2023-04-15T05:15:26;40.07;;;22.30;;
21334;SDS011;10826;52.536;13.432;2023-04-15T05:18:13;41.73;;;21.87;;
21334;SDS011;10826;52.536;13.432;2023-04-15T05:20:58;42.17;;;22.90;;
21334;SDS011;10826;52.536;13.432;2023-04-15T05:23:45;37.20;;;22.40;;
21334;SDS011;10826;52.536;13.432;2023-04-15T05:26:31;42.00;;;22.30;;
21334;SDS011;10826;52.536;13.432;2023-04-15T05:29:17;33.40;;;20.80;;
21334;SDS011;10826;52.536;13.432;2023-04-15T05:32:03;35.63;;;19.40;;
21334;SDS011;10826;52.536;13.432;2023-04-15T05:34:50;28.10;;;19.40;;
21334;SDS011;10826;52.536;13.432;2023-04-15T05:37:36;31.50;;;18.57;;
21334;SDS011;10826;52.536;13.432;2023-04-15T05:40:22;28.03;;;19.47;;
21334;SDS011;10826;52.536;13.432;2023-04-15T05:43:08;30.00;;;18.07;;
21334;SDS011;10826;52.536;13.432;2023-04-15T05:45:54;28.97;;;19.63;;
21334;SDS011;10826;52.536;13.432;2023-04-15T05:48:40;27.60;;;18.03;;
21334;SDS011;10826;52.536;13.432;2023-04-15T05:51:26;25.30;;;17.67;;
21334;SDS011;10826;52.536;13.432;2023-04-15T05:54:12;26.77;;;16.50;;
21334;SDS011;10826;52.536;13.432;2023-04-15T05:56:58;27.90;;;16.60;;
21334;SDS011;10826;52.536;13.432;2023-04-15T05:59:45;23.73;;;16.17;;
21334;SDS011;10826;52.536;13.432;2023-04-15T06:02:31;25.00;;;16.33;;
21334;SDS011;10826;52.536;13.432;2023-04-15T06:05:17;23.50;;;15.70;;
21334;SDS011;10826;52.536;13.432;2023-04-15T06:08:03;22.83;;;16.40;;
21334;SDS011;10826;52.536;13.432;2023-04-15T06:10:50;22.80;;;15.63;;
21334;SDS011;10826;52.536;13.432;2023-04-15T06:13:36;24.27;;;16.70;;
21334;SDS011;10826;52.536;13.432;2023-04-15T06:16:22;20.53;;;14.40;;
21334;SDS011;10826;52.536;13.432;2023-04-15T06:19:09;19.90;;;13.53;;
21334;SDS011;10826;52.536;13.432;2023-04-15T06:21:56;15.43;;;12.80;;
21334;SDS011;10826;52.536;13.432;2023-04-15T06:24:43;15.13;;;13.53;;
21334;SDS011;10826;52.536;13.432;2023-04-15T06:27:29;15.43;;;12.73;;
21334;SDS011;10826;52.536;13.432;2023-04-15T06:30:16;14.67;;;12.57;;
21334;SDS011;10826;52.536;13.432;2023-04-15T06:33:02;15.03;;;12.70;;
21334;SDS011;10826;52.536;13.432;2023-04-15T06:35:50;16.33;;;11.80;;
21334;SDS011;10826;52.536;13.432;2023-04-15T06:38:38;18.57;;;11.60;;
21334;SDS011;10826;52.536;13.432;2023-04-15T06:41:24;12.70;;;10.97;;
21334;SDS011;10826;52.536;13.432;2023-04-15T06:44:10;12.07;;;10.87;;
21334;SDS011;10826;52.536;13.432;2023-04-15T06:46:56;13.07;;;11.70;;
21334;SDS011;10826;52.536;13.432;2023-04-15T06:49:42;13.67;;;10.47;;
21334;SDS011;10826;52.536;13.432;2023-04-15T06:52:29;13.43;;;12.03;;
21334;SDS011;10826;52.536;13.432;2023-04-15T06:55:15;12.40;;;11.10;;
21334;SDS011;10826;52.536;13.432;2023-04-15T06:58:01;12.30;;;11.00;;
21334;SDS011;10826;52.536;13.432;2023-04-15T07:00:47;11.13;;;10.13;;
21334;SDS011;10826;52.536;13.432;2023-04-15T07:03:33;12.07;;;10.80;;
21334;SDS011;10826;52.536;13.432;2023-04-15T07:06:19;11.97;;;10.77;;
21334;SDS011;10826;52.536;13.432;2023-04-15T07:09:06;12.57;;;10.80;;
21334;SDS011;10826;52.536;13.432;2023-04-15T07:11:53;12.83;;;10.97;;
21334;SDS011;10826;52.536;13.432;2023-04-15T07:14:38;12.30;;;11.03;;
21334;SDS011;10826;52.536;13.432;2023-04-15T07:17:24;12.13;;;10.97;;
21334;SDS011;10826;52.536;13.432;2023-04-15T07:20:10;12.80;;;11.60;;
21334;SDS011;10826;52.536;13.432;2023-04-15T07:22:58;12.60;;;11.37;;
21334;SDS011;10826;52.536;13.432;2023-04-15T07:25:44;13.60;;;11.80;;
21334;SDS011;10826;52.536;13.432;2023-04-15T07:28:32;15.57;;;12.30;;
21334;SDS011;10826;52.536;13.432;2023-04-15T07:31:18;14.83;;;12.33;;
21334;SDS011;10826;52.536;13.432;2023-04-15T07:34:05;12.97;;;11.73;;
21334;SDS011;10826;52.536;13.432;2023-04-15T07:36:51;15.00;;;11.63;;
21334;SDS011;10826;52.536;13.432;2023-04-15T07:39:45;14.57;;;13.17;;
21334;SDS011;10826;52.536;13.432;2023-04-15T07:42:33;14.10;;;12.40;;
21334;SDS011;10826;52.536;13.432;2023-04-15T07:45:20;12.63;;;11.33;;
21334;SDS011;10826;52.536;13.432;2023-04-15T07:48:19;14.87;;;12.47;;
21334;SDS011;10826;52.536;13.432;2023-04-15T07:51:05;14.83;;;12.20;;
21334;SDS011;10826;52.536;13.432;2023-04-15T07:53:51;14.73;;;13.23;;
21334;SDS011;10826;52.536;13.432;2023-04-15T07:56:37;14.67;;;12.30;;
21334;SDS011;10826;52.536;13.432;2023-04-15T07:59:23;14.40;;;13.00;;
21334;SDS011;10826;52.536;13.432;2023-04-15T08:02:12;16.23;;;12.80;;
21334;SDS011;10826;52.536;13.432;2023-04-15T08:04:58;13.57;;;12.17;;
21334;SDS011;10826;52.536;13.432;2023-04-15T08:07:47;13.03;;;11.67;;
21334;SDS011;10826;52.536;13.432;2023-04-15T08:10:34;14.30;;;12.63;;
21334;SDS011;10826;52.536;13.432;2023-04-15T08:13:20;13.90;;;12.50;;
21334;SDS011;10826;52.536;13.432;2023-04-15T08:16:19;14.90;;;13.03;;
21334;SDS011;10826;52.536;13.432;2023-04-15T08:19:08;14.10;;;12.70;;
21334;SDS011;10826;52.536;13.432;2023-04-15T08:21:55;17.03;;;13.07;;
21334;SDS011;10826;52.536;13.432;2023-04-15T08:24:46;14.63;;;12.77;;
21334;SDS011;10826;52.536;13.432;2023-04-15T08:27:35;15.47;;;12.50;;
21334;SDS011;10826;52.536;13.432;2023-04-15T08:30:21;16.10;;;12.80;;
21334;SDS011;10826;52.536;13.432;2023-04-15T08:33:08;13.47;;;12.07;;
21334;SDS011;10826;52.536;13.432;2023-04-15T08:35:54;16.20;;;11.43;;
21334;SDS011;10826;52.536;13.432;2023-04-15T08:38:41;13.50;;;12.20;;
21334;SDS011;10826;52.536;13.432;2023-04-15T08:41:26;14.83;;;11.33;;
21334;SDS011;10826;52.536;13.432;2023-04-15T08:44:46;16.00;;;12.40;;
21334;SDS011;10826;52.536;13.432;2023-04-15T08:47:36;14.10;;;11.73;;
21334;SDS011;10826;52.536;13.432;2023-04-15T08:50:26;13.53;;;10.93;;
21334;SDS011;10826;52.536;13.432;2023-04-15T08:53:19;13.63;;;12.23;;
21334;SDS011;10826;52.536;13.432;2023-04-15T08:56:06;15.23;;;12.20;;
21334;SDS011;10826;52.536;13.432;2023-04-15T08:58:54;13.60;;;12.33;;
21334;SDS011;10826;52.536;13.432;2023-04-15T09:01:59;16.77;;;12.43;;
21334;SDS011;10826;52.536;13.432;2023-04-15T09:05:07;13.33;;;11.93;;
21334;SDS011;10826;52.536;13.432;2023-04-15T09:08:04;14.07;;;12.57;;
21334;SDS011;10826;52.536;13.432;2023-04-15T09:10:50;13.67;;;12.37;;
21334;SDS011;10826;52.536;13.432;2023-04-15T09:13:36;12.97;;;11.63;;
21334;SDS011;10826;52.536;13.432;2023-04-15T09:16:22;13.27;;;11.80;;
21334;SDS011;10826;52.536;13.432;2023-04-15T09:19:21;12.90;;;11.57;;
21334;SDS011;10826;52.536;13.432;2023-04-15T09:22:08;13.50;;;11.80;;
21334;SDS011;10826;52.536;13.432;2023-04-15T09:24:55;12.87;;;11.63;;
21334;SDS011;10826;52.536;13.432;2023-04-15T09:27:47;12.20;;;11.00;;
21334;SDS011;10826;52.536;13.432;2023-04-15T09:30:34;13.37;;;11.90;;
21334;SDS011;10826;52.536;13.432;2023-04-15T09:33:21;13.37;;;11.53;;
21334;SDS011;10826;52.536;13.432;2023-04-15T09:36:08;12.40;;;11.10;;
21334;SDS011;10826;52.536;13.432;2023-04-15T09:38:55;12.93;;;11.73;;
21334;SDS011;10826;52.536;13.432;2023-04-15T09:41:43;12.40;;;11.20;;
21334;SDS011;10826;52.536;13.432;2023-04-15T09:44:29;11.70;;;10.60;;
21334;SDS011;10826;52.536;13.432;2023-04-15T09:47:31;12.00;;;10.80;;
21334;SDS011;10826;52.536;13.432;2023-04-15T09:50:18;13.00;;;11.70;;
21334;SDS011;10826;52.536;13.432;2023-04-15T09:53:09;14.10;;;12.60;;
21334;SDS011;10826;52.536;13.432;2023-04-15T09:56:01;13.33;;;12.00;;
21334;SDS011;10826;52.536;13.432;2023-04-15T09:58:55;16.33;;;11.77;;
21334;SDS011;10826;52.536;13.432;2023-04-15T10:01:41;13.17;;;11.87;;
21334;SDS011;10826;52.536;13.432;2023-04-15T10:04:27;12.80;;;11.53;;
21334;SDS011;10826;52.536;13.432;2023-04-15T10:07:14;13.70;;;12.30;;
21334;SDS011;10826;52.536;13.432;2023-04-15T10:10:05;20.77;;;13.97;;
21334;SDS011;10826;52.536;13.432;2023-04-15T10:12:52;14.93;;;12.13;;
21334;SDS011;10826;52.536;13.432;2023-04-15T10:15:40;13.57;;;12.13;;
21334;SDS011;10826;52.536;13.432;2023-04-15T10:18:31;13.53;;;12.23;;
21334;SDS011;10826;52.536;13.432;2023-04-15T10:21:22;14.23;;;12.67;;
21334;SDS011;10826;52.536;13.432;2023-04-15T10:24:08;15.60;;;11.80;;
21334;SDS011;10826;52.536;13.432;2023-04-15T10:26:56;17.90;;;10.87;;
21334;SDS011;10826;52.536;13.432;2023-04-15T10:29:44;14.43;;;11.43;;
21334;SDS011;10826;52.536;13.432;2023-04-15T10:32:32;13.33;;;12.07;;
21334;SDS011;10826;52.536;13.432;2023-04-15T10:35:21;13.37;;;10.70;;
21334;SDS011;10826;52.536;13.432;2023-04-15T10:38:30;12.20;;;11.20;;
21334;SDS011;10826;52.536;13.432;2023-04-15T10:41:32;13.33;;;11.87;;
21334;SDS011;10826;52.536;13.432;2023-04-15T10:44:20;11.97;;;10.87;;
21334;SDS011;10826;52.536;13.432;2023-04-15T10:47:13;14.40;;;12.23;;
21334;SDS011;10826;52.536;13.432;2023-04-15T10:50:05;13.30;;;12.00;;
21334;SDS011;10826;52.536;13.432;2023-04-15T10:52:52;12.80;;;11.50;;
21334;SDS011;10826;52.536;13.432;2023-04-15T10:55:38;12.87;;;11.63;;
21334;SDS011;10826;52.536;13.432;2023-04-15T10:58:25;11.43;;;10.40;;
21334;SDS011;10826;52.536;13.432;2023-04-15T11:04:55;12.90;;;11.37;;
21334;SDS011;10826;52.536;13.432;2023-04-15T11:13:22;14.83;;;12.27;;
21334;SDS011;10826;52.536;13.432;2023-04-15T11:16:11;13.53;;;12.00;;
21334;SDS011;10826;52.536;13.432;2023-04-15T11:18:57;14.10;;;12.60;;
21334;SDS011;10826;52.536;13.432;2023-04-15T11:21:43;14.23;;;12.50;;
21334;SDS011;10826;52.536;13.432;2023-04-15T11:24:29;14.57;;;12.23;;
21334;SDS011;10826;52.536;13.432;2023-04-15T11:27:19;12.43;;;11.23;;
21334;SDS011;10826;52.536;13.432;2023-04-15T11:30:22;13.63;;;12.20;;
21334;SDS011;10826;52.536;13.432;2023-04-15T11:33:13;14.40;;;11.50;;
21334;SDS011;10826;52.536;13.432;2023-04-15T11:35:59;13.20;;;12.00;;
21334;SDS011;10826;52.536;13.432;2023-04-15T11:38:48;13.20;;;11.93;;
21334;SDS011;10826;52.536;13.432;2023-04-15T11:41:34;13.80;;;12.33;;
21334;SDS011;10826;52.536;13.432;2023-04-15T11:44:20;14.27;;;12.03;;
21334;SDS011;10826;52.536;13.432;2023-04-15T11:47:25;13.03;;;11.83;;
21334;SDS011;10826;52.536;13.432;2023-04-15T11:50:15;14.40;;;12.17;;
21334;SDS011;10826;52.536;13.432;2023-04-15T11:53:10;15.00;;;12.50;;
21334;SDS011;10826;52.536;13.432;2023-04-15T11:56:01;13.53;;;12.13;;
21334;SDS011;10826;52.536;13.432;2023-04-15T11:58:47;13.20;;;12.00;;
21334;SDS011;10826;52.536;13.432;2023-04-15T12:01:40;14.77;;;13.13;;
21334;SDS011;10826;52.536;13.432;2023-04-15T12:04:31;13.37;;;12.07;;
21334;SDS011;10826;52.536;13.432;2023-04-15T12:07:17;15.13;;;13.47;;
21334;SDS011;10826;52.536;13.432;2023-04-15T12:10:03;13.20;;;11.47;;
21334;SDS011;10826;52.536;13.432;2023-04-15T12:12:50;12.90;;;11.70;;
21334;SDS011;10826;52.536;13.432;2023-04-15T12:15:39;15.50;;;11.37;;
21334;SDS011;10826;52.536;13.432;2023-04-15T12:18:26;12.43;;;11.23;;
21334;SDS011;10826;52.536;13.432;2023-04-15T12:21:12;15.10;;;11.83;;
21334;SDS011;10826;52.536;13.432;2023-04-15T12:24:03;12.10;;;10.97;;
21334;SDS011;10826;52.536;13.432;2023-04-15T12:26:53;13.73;;;12.40;;
21334;SDS011;10826;52.536;13.432;2023-04-15T12:29:48;12.83;;;11.53;;
21334;SDS011;10826;52.536;13.432;2023-04-15T12:32:37;12.57;;;11.43;;
21334;SDS011;10826;52.536;13.432;2023-04-15T12:35:28;12.57;;;11.23;;
21334;SDS011;10826;52.536;13.432;2023-04-15T12:38:14;16.03;;;12.00;;
21334;SDS011;10826;52.536;13.432;2023-04-15T12:41:00;13.83;;;12.27;;
21334;SDS011;10826;52.536;13.432;2023-04-15T12:43:47;13.20;;;11.93;;
21334;SDS011;10826;52.536;13.432;2023-04-15T12:46:37;14.43;;;12.97;;
21334;SDS011;10826;52.536;13.432;2023-04-15T12:49:25;15.07;;;12.90;;
21334;SDS011;10826;52.536;13.432;2023-04-15T12:52:22;13.17;;;11.80;;
21334;SDS011;10826;52.536;13.432;2023-04-15T12:55:09;13.93;;;12.57;;
21334;SDS011;10826;52.536;13.432;2023-04-15T12:58:01;14.33;;;12.33;;
21334;SDS011;10826;52.536;13.432;2023-04-15T13:00:48;14.60;;;13.03;;
21334;SDS011;10826;52.536;13.432;2023-04-15T13:03:38;14.10;;;12.70;;
21334;SDS011;10826;52.536;13.432;2023-04-15T13:06:25;14.43;;;12.27;;
21334;SDS011;10826;52.536;13.432;2023-04-15T13:09:16;14.80;;;12.17;;
21334;SDS011;10826;52.536;13.432;2023-04-15T13:12:03;14.37;;;13.07;;
21334;SDS011;10826;52.536;13.432;2023-04-15T13:14:51;12.87;;;11.57;;
21334;SDS011;10826;52.536;13.432;2023-04-15T13:17:43;16.70;;;12.40;;
21334;SDS011;10826;52.536;13.432;2023-04-15T13:20:29;13.30;;;11.63;;
21334;SDS011;10826;52.536;13.432;2023-04-15T13:23:15;14.23;;;11.40;;
21334;SDS011;10826;52.536;13.432;2023-04-15T13:26:19;12.97;;;11.67;;
21334;SDS011;10826;52.536;13.432;2023-04-15T13:29:09;12.83;;;11.63;;
21334;SDS011;10826;52.536;13.432;2023-04-15T13:31:56;11.63;;;10.37;;
21334;SDS011;10826;52.536;13.432;2023-04-15T13:34:42;10.80;;;9.87;;
21334;SDS011;10826;52.536;13.432;2023-04-15T13:37:29;13.13;;;11.60;;
21334;SDS011;10826;52.536;13.432;2023-04-15T13:40:18;13.23;;;10.93;;
21334;SDS011;10826;52.536;13.432;2023-04-15T13:43:07;11.73;;;10.30;;
21334;SDS011;10826;52.536;13.432;2023-04-15T13:45:58;11.93;;;10.83;;
21334;SDS011;10826;52.536;13.432;2023-04-15T13:48:44;10.80;;;9.90;;
21334;SDS011;10826;52.536;13.432;2023-04-15T13:51:32;10.47;;;9.47;;
21334;SDS011;10826;52.536;13.432;2023-04-15T13:54:20;9.37;;;8.63;;
21334;SDS011;10826;52.536;13.432;2023-04-15T13:57:06;9.60;;;8.57;;
21334;SDS011;10826;52.536;13.432;2023-04-15T13:59:53;10.73;;;9.57;;
21334;SDS011;10826;52.536;13.432;2023-04-15T14:02:39;11.93;;;10.67;;
21334;SDS011;10826;52.536;13.432;2023-04-15T14:05:32;13.50;;;11.60;;
21334;SDS011;10826;52.536;13.432;2023-04-15T14:08:22;12.07;;;10.67;;
21334;SDS011;10826;52.536;13.432;2023-04-15T14:11:12;13.07;;;11.60;;
21334;SDS011;10826;52.536;13.432;2023-04-15T14:13:58;13.17;;;11.87;;
21334;SDS011;10826;52.536;13.432;2023-04-15T14:16:44;11.33;;;10.27;;
21334;SDS011;10826;52.536;13.432;2023-04-15T14:19:31;10.30;;;9.23;;
21334;SDS011;10826;52.536;13.432;2023-04-15T14:22:20;10.60;;;9.60;;
21334;SDS011;10826;52.536;13.432;2023-04-15T14:25:06;10.77;;;9.67;;
21334;SDS011;10826;52.536;13.432;2023-04-15T14:27:52;11.60;;;10.37;;
21334;SDS011;10826;52.536;13.432;2023-04-15T14:30:42;11.37;;;9.27;;
21334;SDS011;10826;52.536;13.432;2023-04-15T14:33:28;10.30;;;9.30;;
21334;SDS011;10826;52.536;13.432;2023-04-15T14:36:14;10.03;;;9.03;;
21334;SDS011;10826;52.536;13.432;2023-04-15T14:39:00;11.10;;;10.00;;
21334;SDS011;10826;52.536;13.432;2023-04-15T14:41:46;11.33;;;9.17;;
21334;SDS011;10826;52.536;13.432;2023-04-15T14:44:33;10.93;;;9.83;;
21334;SDS011;10826;52.536;13.432;2023-04-15T14:47:19;12.23;;;11.07;;
21334;SDS011;10826;52.536;13.432;2023-04-15T14:50:21;11.20;;;10.03;;
21334;SDS011;10826;52.536;13.432;2023-04-15T14:53:11;11.10;;;10.10;;
21334;SDS011;10826;52.536;13.432;2023-04-15T14:55:58;9.87;;;9.07;;
21334;SDS011;10826;52.536;13.432;2023-04-15T14:58:47;10.47;;;9.60;;
21334;SDS011;10826;52.536;13.432;2023-04-15T15:01:37;10.50;;;9.50;;
21334;SDS011;10826;52.536;13.432;2023-04-15T15:04:25;9.80;;;8.90;;
21334;SDS011;10826;52.536;13.432;2023-04-15T15:07:11;9.77;;;8.90;;
21334;SDS011;10826;52.536;13.432;2023-04-15T15:09:59;10.17;;;8.70;;
21334;SDS011;10826;52.536;13.432;2023-04-15T15:12:48;9.57;;;8.77;;
21334;SDS011;10826;52.536;13.432;2023-04-15T15:15:34;9.20;;;8.50;;
21334;SDS011;10826;52.536;13.432;2023-04-15T15:18:22;11.53;;;8.83;;
21334;SDS011;10826;52.536;13.432;2023-04-15T15:21:09;10.60;;;9.53;;
21334;SDS011;10826;52.536;13.432;2023-04-15T15:23:58;10.87;;;9.77;;
21334;SDS011;10826;52.536;13.432;2023-04-15T15:26:44;9.67;;;8.87;;
21334;SDS011;10826;52.536;13.432;2023-04-15T15:29:30;8.83;;;8.03;;
21334;SDS011;10826;52.536;13.432;2023-04-15T15:32:16;9.63;;;8.83;;
21334;SDS011;10826;52.536;13.432;2023-04-15T15:35:02;10.27;;;9.37;;
21334;SDS011;10826;52.536;13.432;2023-04-15T15:37:48;9.43;;;8.63;;
21334;SDS011;10826;52.536;13.432;2023-04-15T15:40:34;8.60;;;7.93;;
21334;SDS011;10826;52.536;13.432;2023-04-15T15:43:20;8.50;;;7.80;;
21334;SDS011;10826;52.536;13.432;2023-04-15T15:46:06;9.20;;;8.40;;
21334;SDS011;10826;52.536;13.432;2023-04-15T15:48:53;10.47;;;9.57;;
21334;SDS011;10826;52.536;13.432;2023-04-15T15:51:39;10.50;;;9.60;;
21334;SDS011;10826;52.536;13.432;2023-04-15T15:54:25;10.40;;;9.57;;
21334;SDS011;10826;52.536;13.432;2023-04-15T15:57:11;9.20;;;8.40;;
21334;SDS011;10826;52.536;13.432;2023-04-15T15:59:57;9.53;;;8.70;;
21334;SDS011;10826;52.536;13.432;2023-04-15T16:02:43;8.83;;;8.13;;
21334;SDS011;10826;52.536;13.432;2023-04-15T16:05:29;9.50;;;8.60;;
21334;SDS011;10826;52.536;13.432;2023-04-15T16:08:15;7.77;;;7.17;;
21334;SDS011;10826;52.536;13.432;2023-04-15T16:11:01;9.73;;;8.93;;
21334;SDS011;10826;52.536;13.432;2023-04-15T16:13:47;8.70;;;7.90;;
21334;SDS011;10826;52.536;13.432;2023-04-15T16:16:33;8.63;;;7.90;;
21334;SDS011;10826;52.536;13.432;2023-04-15T16:19:19;7.97;;;7.20;;